sensor_id;sensor_type;location;lat;lon;timestamp;P1;durP1;ratioP1;P2;durP2;ratioP2
43511;SDS011;34054;52.100;5.116;2023-05-10T00:00:20;30.35;;;27.00;;
43511;SDS011;34054;52.100;5.116;2023-05-10T00:00:53;32.42;;;28.50;;
43511;SDS011;34054;52.100;5.116;2023-05-10T00:01:25;37.33;;;28.58;;
43511;SDS011;34054;52.100;5.116;2023-05-10T00:01:56;36.60;;;27.08;;
43511;SDS011;34054;52.100;5.116;2023-05-10T00:02:27;38.00;;;28.98;;
43511;SDS011;34054;52.100;5.116;2023-05-10T00:02:59;29.60;;;26.63;;
43511;SDS011;34054;52.100;5.116;2023-05-10T00:03:30;43.03;;;30.95;;
43511;SDS011;34054;52.100;5.116;2023-05-10T00:04:02;37.05;;;28.60;;
43511;SDS011;34054;52.100;5.116;2023-05-10T00:04:34;32.33;;;27.23;;
43511;SDS011;34054;52.100;5.116;2023-05-10T00:05:06;31.83;;;28.50;;
43511;SDS011;34054;52.100;5.116;2023-05-10T00:05:38;30.60;;;26.85;;
43511;SDS011;34054;52.100;5.116;2023-05-10T00:06:10;33.22;;;28.23;;
43511;SDS011;34054;52.100;5.116;2023-05-10T00:06:41;33.35;;;27.92;;
43511;SDS011;34054;52.100;5.116;2023-05-10T00:07:12;32.97;;;27.75;;
43511;SDS011;34054;52.100;5.116;2023-05-10T00:07:44;34.45;;;25.65;;
43511;SDS011;34054;52.100;5.116;2023-05-10T00:08:15;43.15;;;30.15;;
43511;SDS011;34054;52.100;5.116;2023-05-10T00:08:47;33.55;;;30.02;;
43511;SDS011;34054;52.100;5.116;2023-05-10T00:09:19;30.25;;;26.83;;
43511;SDS011;34054;52.100;5.116;2023-05-10T00:09:50;33.28;;;28.42;;
43511;SDS011;34054;52.100;5.116;2023-05-10T00:10:22;36.90;;;30.13;;
43511;SDS011;34054;52.100;5.116;2023-05-10T00:10:54;37.90;;;32.33;;
43511;SDS011;34054;52.100;5.116;2023-05-10T00:11:25;33.17;;;29.65;;
43511;SDS011;34054;52.100;5.116;2023-05-10T00:11:56;32.22;;;27.92;;
43511;SDS011;34054;52.100;5.116;2023-05-10T00:12:29;36.05;;;32.17;;
43511;SDS011;34054;52.100;5.116;2023-05-10T00:13:00;39.03;;;29.10;;
43511;SDS011;34054;52.100;5.116;2023-05-10T00:13:31;33.53;;;27.52;;
43511;SDS011;34054;52.100;5.116;2023-05-10T00:14:02;31.02;;;27.90;;
43511;SDS011;34054;52.100;5.116;2023-05-10T00:14:36;40.42;;;32.42;;
43511;SDS011;34054;52.100;5.116;2023-05-10T00:15:08;31.15;;;27.65;;
43511;SDS011;34054;52.100;5.116;2023-05-10T00:15:39;41.63;;;27.33;;
43511;SDS011;34054;52.100;5.116;2023-05-10T00:16:11;36.15;;;30.50;;
43511;SDS011;34054;52.100;5.116;2023-05-10T00:16:43;35.35;;;28.80;;
43511;SDS011;34054;52.100;5.116;2023-05-10T00:17:15;32.30;;;28.05;;
43511;SDS011;34054;52.100;5.116;2023-05-10T00:17:46;33.70;;;28.35;;
43511;SDS011;34054;52.100;5.116;2023-05-10T00:18:18;32.05;;;27.50;;
43511;SDS011;34054;52.100;5.116;2023-05-10T00:18:49;32.60;;;28.40;;
43511;SDS011;34054;52.100;5.116;2023-05-10T00:19:20;30.30;;;26.58;;
43511;SDS011;34054;52.100;5.116;2023-05-10T00:19:53;34.85;;;30.52;;
43511;SDS011;34054;52.100;5.116;2023-05-10T00:20:24;39.67;;;28.30;;
43511;SDS011;34054;52.100;5.116;2023-05-10T00:20:55;34.47;;;27.73;;
43511;SDS011;34054;52.100;5.116;2023-05-10T00:21:27;32.72;;;29.42;;
43511;SDS011;34054;52.100;5.116;2023-05-10T00:21:59;41.22;;;31.02;;
43511;SDS011;34054;52.100;5.116;2023-05-10T00:22:31;40.40;;;31.83;;
43511;SDS011;34054;52.100;5.116;2023-05-10T00:23:02;39.58;;;30.58;;
43511;SDS011;34054;52.100;5.116;2023-05-10T00:23:34;36.65;;;29.00;;
43511;SDS011;34054;52.100;5.116;2023-05-10T00:24:05;33.95;;;25.67;;
43511;SDS011;34054;52.100;5.116;2023-05-10T00:24:37;38.10;;;28.58;;
43511;SDS011;34054;52.100;5.116;2023-05-10T00:25:08;33.15;;;28.55;;
43511;SDS011;34054;52.100;5.116;2023-05-10T00:25:41;44.97;;;36.35;;
43511;SDS011;34054;52.100;5.116;2023-05-10T00:26:12;33.97;;;30.30;;
43511;SDS011;34054;52.100;5.116;2023-05-10T00:26:43;39.05;;;32.38;;
43511;SDS011;34054;52.100;5.116;2023-05-10T00:27:15;32.90;;;29.55;;
43511;SDS011;34054;52.100;5.116;2023-05-10T00:27:46;34.40;;;29.75;;
43511;SDS011;34054;52.100;5.116;2023-05-10T00:28:18;34.50;;;30.85;;
43511;SDS011;34054;52.100;5.116;2023-05-10T00:28:50;48.30;;;32.25;;
43511;SDS011;34054;52.100;5.116;2023-05-10T00:29:21;43.65;;;29.42;;
43511;SDS011;34054;52.100;5.116;2023-05-10T00:29:54;39.30;;;31.42;;
43511;SDS011;34054;52.100;5.116;2023-05-10T00:30:26;36.78;;;29.50;;
43511;SDS011;34054;52.100;5.116;2023-05-10T00:30:57;30.98;;;27.15;;
43511;SDS011;34054;52.100;5.116;2023-05-10T00:31:28;36.55;;;28.67;;
43511;SDS011;34054;52.100;5.116;2023-05-10T00:32:01;35.97;;;27.92;;
43511;SDS011;34054;52.100;5.116;2023-05-10T00:32:32;36.88;;;29.08;;
43511;SDS011;34054;52.100;5.116;2023-05-10T00:33:03;41.85;;;30.25;;
43511;SDS011;34054;52.100;5.116;2023-05-10T00:33:34;39.30;;;33.38;;
43511;SDS011;34054;52.100;5.116;2023-05-10T00:34:06;31.52;;;28.30;;
43511;SDS011;34054;52.100;5.116;2023-05-10T00:34:37;32.50;;;27.92;;
43511;SDS011;34054;52.100;5.116;2023-05-10T00:35:09;33.28;;;27.60;;
43511;SDS011;34054;52.100;5.116;2023-05-10T00:35:40;35.88;;;32.13;;
43511;SDS011;34054;52.100;5.116;2023-05-10T00:36:12;40.97;;;29.90;;
43511;SDS011;34054;52.100;5.116;2023-05-10T00:36:43;36.97;;;29.00;;
43511;SDS011;34054;52.100;5.116;2023-05-10T00:37:15;33.30;;;28.75;;
43511;SDS011;34054;52.100;5.116;2023-05-10T00:37:47;35.03;;;30.52;;
43511;SDS011;34054;52.100;5.116;2023-05-10T00:38:18;37.88;;;27.92;;
43511;SDS011;34054;52.100;5.116;2023-05-10T00:38:49;35.50;;;28.38;;
43511;SDS011;34054;52.100;5.116;2023-05-10T00:39:21;32.05;;;27.92;;
43511;SDS011;34054;52.100;5.116;2023-05-10T00:39:53;31.70;;;28.50;;
43511;SDS011;34054;52.100;5.116;2023-05-10T00:40:24;32.88;;;27.30;;
43511;SDS011;34054;52.100;5.116;2023-05-10T00:40:56;34.42;;;27.20;;
43511;SDS011;34054;52.100;5.116;2023-05-10T00:41:27;31.58;;;28.15;;
43511;SDS011;34054;52.100;5.116;2023-05-10T00:41:58;42.28;;;30.63;;
43511;SDS011;34054;52.100;5.116;2023-05-10T00:42:31;31.35;;;28.17;;
43511;SDS011;34054;52.100;5.116;2023-05-10T00:43:02;32.38;;;26.20;;
43511;SDS011;34054;52.100;5.116;2023-05-10T00:43:33;41.95;;;31.95;;
43511;SDS011;34054;52.100;5.116;2023-05-10T00:44:04;33.38;;;27.17;;
43511;SDS011;34054;52.100;5.116;2023-05-10T00:44:37;33.58;;;28.33;;
43511;SDS011;34054;52.100;5.116;2023-05-10T00:45:09;38.75;;;31.48;;
43511;SDS011;34054;52.100;5.116;2023-05-10T00:45:42;40.90;;;29.20;;
43511;SDS011;34054;52.100;5.116;2023-05-10T00:46:13;31.58;;;28.10;;
43511;SDS011;34054;52.100;5.116;2023-05-10T00:46:47;28.92;;;25.48;;
43511;SDS011;34054;52.100;5.116;2023-05-10T00:47:19;40.53;;;31.17;;
43511;SDS011;34054;52.100;5.116;2023-05-10T00:47:50;36.45;;;30.20;;
43511;SDS011;34054;52.100;5.116;2023-05-10T00:48:25;35.40;;;28.55;;
43511;SDS011;34054;52.100;5.116;2023-05-10T00:48:57;38.28;;;31.40;;
43511;SDS011;34054;52.100;5.116;2023-05-10T00:49:28;30.73;;;26.98;;
43511;SDS011;34054;52.100;5.116;2023-05-10T00:50:00;42.13;;;31.33;;
43511;SDS011;34054;52.100;5.116;2023-05-10T00:50:33;34.85;;;30.23;;
43511;SDS011;34054;52.100;5.116;2023-05-10T00:51:04;33.90;;;29.00;;
43511;SDS011;34054;52.100;5.116;2023-05-10T00:51:36;36.78;;;29.63;;
43511;SDS011;34054;52.100;5.116;2023-05-10T00:52:08;41.00;;;30.27;;
43511;SDS011;34054;52.100;5.116;2023-05-10T00:52:40;39.63;;;33.80;;
43511;SDS011;34054;52.100;5.116;2023-05-10T00:53:12;38.05;;;29.42;;
43511;SDS011;34054;52.100;5.116;2023-05-10T00:53:44;34.75;;;27.85;;
43511;SDS011;34054;52.100;5.116;2023-05-10T00:54:17;45.05;;;32.38;;
43511;SDS011;34054;52.100;5.116;2023-05-10T00:54:49;39.00;;;33.50;;
43511;SDS011;34054;52.100;5.116;2023-05-10T00:55:22;36.58;;;32.65;;
43511;SDS011;34054;52.100;5.116;2023-05-10T00:55:54;48.03;;;36.35;;
43511;SDS011;34054;52.100;5.116;2023-05-10T00:56:26;46.53;;;33.72;;
43511;SDS011;34054;52.100;5.116;2023-05-10T00:56:59;43.10;;;30.33;;
43511;SDS011;34054;52.100;5.116;2023-05-10T00:57:31;47.90;;;34.72;;
43511;SDS011;34054;52.100;5.116;2023-05-10T00:58:02;53.40;;;33.05;;
43511;SDS011;34054;52.100;5.116;2023-05-10T00:58:34;43.13;;;33.38;;
43511;SDS011;34054;52.100;5.116;2023-05-10T00:59:06;49.47;;;34.67;;
43511;SDS011;34054;52.100;5.116;2023-05-10T00:59:38;43.95;;;34.55;;
43511;SDS011;34054;52.100;5.116;2023-05-10T01:00:12;44.40;;;34.83;;
43511;SDS011;34054;52.100;5.116;2023-05-10T01:00:48;41.22;;;31.95;;
43511;SDS011;34054;52.100;5.116;2023-05-10T01:01:22;46.00;;;34.38;;
43511;SDS011;34054;52.100;5.116;2023-05-10T01:01:53;47.55;;;35.20;;
43511;SDS011;34054;52.100;5.116;2023-05-10T01:02:24;44.50;;;32.35;;
43511;SDS011;34054;52.100;5.116;2023-05-10T01:02:57;46.50;;;30.73;;
43511;SDS011;34054;52.100;5.116;2023-05-10T01:03:28;39.47;;;31.65;;
43511;SDS011;34054;52.100;5.116;2023-05-10T01:04:00;46.60;;;34.97;;
43511;SDS011;34054;52.100;5.116;2023-05-10T01:04:33;49.95;;;34.65;;
43511;SDS011;34054;52.100;5.116;2023-05-10T01:05:06;42.97;;;33.60;;
43511;SDS011;34054;52.100;5.116;2023-05-10T01:05:37;50.95;;;32.85;;
43511;SDS011;34054;52.100;5.116;2023-05-10T01:06:09;41.45;;;33.90;;
43511;SDS011;34054;52.100;5.116;2023-05-10T01:06:42;40.90;;;34.13;;
43511;SDS011;34054;52.100;5.116;2023-05-10T01:07:13;42.45;;;32.08;;
43511;SDS011;34054;52.100;5.116;2023-05-10T01:07:45;51.78;;;34.20;;
43511;SDS011;34054;52.100;5.116;2023-05-10T01:08:16;39.05;;;32.50;;
43511;SDS011;34054;52.100;5.116;2023-05-10T01:08:48;42.92;;;34.10;;
43511;SDS011;34054;52.100;5.116;2023-05-10T01:09:20;41.05;;;32.70;;
43511;SDS011;34054;52.100;5.116;2023-05-10T01:09:52;41.95;;;32.67;;
43511;SDS011;34054;52.100;5.116;2023-05-10T01:10:23;43.13;;;31.77;;
43511;SDS011;34054;52.100;5.116;2023-05-10T01:10:56;47.67;;;37.40;;
43511;SDS011;34054;52.100;5.116;2023-05-10T01:11:27;45.72;;;31.17;;
43511;SDS011;34054;52.100;5.116;2023-05-10T01:11:59;39.88;;;33.67;;
43511;SDS011;34054;52.100;5.116;2023-05-10T01:12:32;53.33;;;37.67;;
43511;SDS011;34054;52.100;5.116;2023-05-10T01:13:04;42.33;;;32.38;;
43511;SDS011;34054;52.100;5.116;2023-05-10T01:13:36;42.40;;;34.22;;
43511;SDS011;34054;52.100;5.116;2023-05-10T01:14:09;36.63;;;31.42;;
43511;SDS011;34054;52.100;5.116;2023-05-10T01:14:41;43.80;;;33.22;;
43511;SDS011;34054;52.100;5.116;2023-05-10T01:15:14;37.90;;;29.35;;
43511;SDS011;34054;52.100;5.116;2023-05-10T01:15:47;38.80;;;32.45;;
43511;SDS011;34054;52.100;5.116;2023-05-10T01:16:20;36.13;;;32.00;;
43511;SDS011;34054;52.100;5.116;2023-05-10T01:16:51;52.25;;;34.28;;
43511;SDS011;34054;52.100;5.116;2023-05-10T01:17:23;42.72;;;32.55;;
43511;SDS011;34054;52.100;5.116;2023-05-10T01:17:56;47.60;;;34.78;;
43511;SDS011;34054;52.100;5.116;2023-05-10T01:18:27;40.72;;;30.80;;
43511;SDS011;34054;52.100;5.116;2023-05-10T01:19:00;44.22;;;31.05;;
43511;SDS011;34054;52.100;5.116;2023-05-10T01:19:31;49.13;;;34.97;;
43511;SDS011;34054;52.100;5.116;2023-05-10T01:20:08;46.25;;;34.70;;
43511;SDS011;34054;52.100;5.116;2023-05-10T01:20:43;43.97;;;30.63;;
43511;SDS011;34054;52.100;5.116;2023-05-10T01:21:21;36.22;;;32.13;;
43511;SDS011;34054;52.100;5.116;2023-05-10T01:22:02;39.00;;;30.20;;
43511;SDS011;34054;52.100;5.116;2023-05-10T01:23:45;38.50;;;30.27;;
43511;SDS011;34054;52.100;5.116;2023-05-10T01:24:54;41.17;;;33.63;;
43511;SDS011;34054;52.100;5.116;2023-05-10T01:26:50;42.13;;;30.08;;
43511;SDS011;34054;52.100;5.116;2023-05-10T01:27:43;55.00;;;33.03;;
43511;SDS011;34054;52.100;5.116;2023-05-10T01:29:34;49.20;;;29.83;;
43511;SDS011;34054;52.100;5.116;2023-05-10T01:30:39;40.85;;;32.35;;
43511;SDS011;34054;52.100;5.116;2023-05-10T01:31:28;53.60;;;36.13;;
43511;SDS011;34054;52.100;5.116;2023-05-10T01:33:01;39.08;;;33.40;;
43511;SDS011;34054;52.100;5.116;2023-05-10T01:33:43;48.70;;;35.50;;
43511;SDS011;34054;52.100;5.116;2023-05-10T01:34:23;42.75;;;35.85;;
43511;SDS011;34054;52.100;5.116;2023-05-10T01:34:59;46.03;;;31.55;;
43511;SDS011;34054;52.100;5.116;2023-05-10T01:35:34;43.40;;;31.58;;
43511;SDS011;34054;52.100;5.116;2023-05-10T01:36:12;51.05;;;36.33;;
43511;SDS011;34054;52.100;5.116;2023-05-10T01:36:51;55.30;;;36.17;;
43511;SDS011;34054;52.100;5.116;2023-05-10T01:37:27;45.22;;;34.80;;
43511;SDS011;34054;52.100;5.116;2023-05-10T01:38:04;47.00;;;35.72;;
43511;SDS011;34054;52.100;5.116;2023-05-10T01:38:43;48.20;;;32.75;;
43511;SDS011;34054;52.100;5.116;2023-05-10T01:39:25;41.70;;;33.17;;
43511;SDS011;34054;52.100;5.116;2023-05-10T01:40:07;46.92;;;32.47;;
43511;SDS011;34054;52.100;5.116;2023-05-10T01:40:46;55.92;;;34.38;;
43511;SDS011;34054;52.100;5.116;2023-05-10T01:41:24;47.08;;;36.08;;
43511;SDS011;34054;52.100;5.116;2023-05-10T01:42:10;48.75;;;35.72;;
43511;SDS011;34054;52.100;5.116;2023-05-10T01:42:43;47.97;;;35.45;;
43511;SDS011;34054;52.100;5.116;2023-05-10T01:43:21;52.40;;;33.33;;
43511;SDS011;34054;52.100;5.116;2023-05-10T01:44:01;61.15;;;38.25;;
43511;SDS011;34054;52.100;5.116;2023-05-10T01:44:39;63.65;;;40.08;;
43511;SDS011;34054;52.100;5.116;2023-05-10T01:45:16;51.92;;;37.05;;
43511;SDS011;34054;52.100;5.116;2023-05-10T01:45:55;49.08;;;38.78;;
43511;SDS011;34054;52.100;5.116;2023-05-10T01:46:33;50.90;;;34.35;;
43511;SDS011;34054;52.100;5.116;2023-05-10T01:47:09;59.28;;;42.25;;
43511;SDS011;34054;52.100;5.116;2023-05-10T01:47:45;64.57;;;38.15;;
43511;SDS011;34054;52.100;5.116;2023-05-10T01:48:20;43.10;;;33.33;;
43511;SDS011;34054;52.100;5.116;2023-05-10T01:48:55;64.05;;;39.55;;
43511;SDS011;34054;52.100;5.116;2023-05-10T01:49:31;61.47;;;40.55;;
43511;SDS011;34054;52.100;5.116;2023-05-10T01:50:06;56.42;;;38.65;;
43511;SDS011;34054;52.100;5.116;2023-05-10T01:50:43;58.15;;;39.92;;
43511;SDS011;34054;52.100;5.116;2023-05-10T01:51:16;70.50;;;39.60;;
43511;SDS011;34054;52.100;5.116;2023-05-10T01:51:53;56.83;;;37.15;;
43511;SDS011;34054;52.100;5.116;2023-05-10T01:52:32;62.42;;;39.97;;
43511;SDS011;34054;52.100;5.116;2023-05-10T01:53:08;59.05;;;38.83;;
43511;SDS011;34054;52.100;5.116;2023-05-10T01:53:41;62.42;;;40.95;;
43511;SDS011;34054;52.100;5.116;2023-05-10T01:54:15;63.15;;;39.22;;
43511;SDS011;34054;52.100;5.116;2023-05-10T01:54:51;55.38;;;36.95;;
43511;SDS011;34054;52.100;5.116;2023-05-10T01:55:27;63.45;;;42.25;;
43511;SDS011;34054;52.100;5.116;2023-05-10T01:56:02;68.07;;;37.17;;
43511;SDS011;34054;52.100;5.116;2023-05-10T01:56:35;73.72;;;40.70;;
43511;SDS011;34054;52.100;5.116;2023-05-10T01:57:08;60.83;;;39.88;;
43511;SDS011;34054;52.100;5.116;2023-05-10T01:57:43;55.55;;;39.47;;
43511;SDS011;34054;52.100;5.116;2023-05-10T01:58:17;72.00;;;38.55;;
43511;SDS011;34054;52.100;5.116;2023-05-10T01:58:51;84.20;;;41.28;;
43511;SDS011;34054;52.100;5.116;2023-05-10T01:59:27;86.28;;;38.17;;
43511;SDS011;34054;52.100;5.116;2023-05-10T02:00:03;75.38;;;41.13;;
43511;SDS011;34054;52.100;5.116;2023-05-10T02:00:35;65.10;;;37.10;;
43511;SDS011;34054;52.100;5.116;2023-05-10T02:01:11;59.72;;;41.17;;
43511;SDS011;34054;52.100;5.116;2023-05-10T02:01:44;59.95;;;37.85;;
43511;SDS011;34054;52.100;5.116;2023-05-10T02:02:16;68.97;;;39.03;;
43511;SDS011;34054;52.100;5.116;2023-05-10T02:02:51;74.32;;;42.47;;
43511;SDS011;34054;52.100;5.116;2023-05-10T02:03:23;80.78;;;44.50;;
43511;SDS011;34054;52.100;5.116;2023-05-10T02:03:56;56.92;;;36.85;;
43511;SDS011;34054;52.100;5.116;2023-05-10T02:04:30;87.35;;;38.03;;
43511;SDS011;34054;52.100;5.116;2023-05-10T02:05:05;79.88;;;40.75;;
43511;SDS011;34054;52.100;5.116;2023-05-10T02:05:37;73.88;;;41.20;;
43511;SDS011;34054;52.100;5.116;2023-05-10T02:06:12;54.47;;;38.08;;
43511;SDS011;34054;52.100;5.116;2023-05-10T02:06:47;84.28;;;45.67;;
43511;SDS011;34054;52.100;5.116;2023-05-10T02:07:19;59.78;;;44.67;;
43511;SDS011;34054;52.100;5.116;2023-05-10T02:07:53;65.95;;;43.45;;
43511;SDS011;34054;52.100;5.116;2023-05-10T02:08:26;72.90;;;42.53;;
43511;SDS011;34054;52.100;5.116;2023-05-10T02:08:57;65.45;;;45.28;;
43511;SDS011;34054;52.100;5.116;2023-05-10T02:09:29;72.10;;;46.85;;
43511;SDS011;34054;52.100;5.116;2023-05-10T02:10:04;63.95;;;43.20;;
43511;SDS011;34054;52.100;5.116;2023-05-10T02:10:37;73.53;;;43.53;;
43511;SDS011;34054;52.100;5.116;2023-05-10T02:11:12;83.47;;;42.40;;
43511;SDS011;34054;52.100;5.116;2023-05-10T02:11:44;65.70;;;47.25;;
43511;SDS011;34054;52.100;5.116;2023-05-10T02:12:18;61.33;;;38.50;;
43511;SDS011;34054;52.100;5.116;2023-05-10T02:12:52;69.43;;;43.10;;
43511;SDS011;34054;52.100;5.116;2023-05-10T02:13:25;63.05;;;40.75;;
43511;SDS011;34054;52.100;5.116;2023-05-10T02:13:58;67.18;;;39.47;;
43511;SDS011;34054;52.100;5.116;2023-05-10T02:14:34;57.25;;;38.65;;
43511;SDS011;34054;52.100;5.116;2023-05-10T02:15:07;69.18;;;43.72;;
43511;SDS011;34054;52.100;5.116;2023-05-10T02:15:41;67.53;;;44.53;;
43511;SDS011;34054;52.100;5.116;2023-05-10T02:16:14;54.03;;;37.20;;
43511;SDS011;34054;52.100;5.116;2023-05-10T02:16:47;60.63;;;40.83;;
43511;SDS011;34054;52.100;5.116;2023-05-10T02:17:22;75.22;;;42.00;;
43511;SDS011;34054;52.100;5.116;2023-05-10T02:17:57;51.35;;;39.22;;
43511;SDS011;34054;52.100;5.116;2023-05-10T02:18:31;59.88;;;41.75;;
43511;SDS011;34054;52.100;5.116;2023-05-10T02:19:04;62.40;;;39.00;;
43511;SDS011;34054;52.100;5.116;2023-05-10T02:19:37;60.38;;;39.97;;
43511;SDS011;34054;52.100;5.116;2023-05-10T02:20:12;55.47;;;36.05;;
43511;SDS011;34054;52.100;5.116;2023-05-10T02:20:44;57.15;;;35.60;;
43511;SDS011;34054;52.100;5.116;2023-05-10T02:21:16;54.72;;;36.53;;
43511;SDS011;34054;52.100;5.116;2023-05-10T02:21:49;49.83;;;38.40;;
43511;SDS011;34054;52.100;5.116;2023-05-10T02:22:22;57.80;;;37.40;;
43511;SDS011;34054;52.100;5.116;2023-05-10T02:22:56;53.15;;;35.47;;
43511;SDS011;34054;52.100;5.116;2023-05-10T02:23:28;55.63;;;35.85;;
43511;SDS011;34054;52.100;5.116;2023-05-10T02:24:02;52.38;;;35.55;;
43511;SDS011;34054;52.100;5.116;2023-05-10T02:24:35;72.05;;;39.50;;
43511;SDS011;34054;52.100;5.116;2023-05-10T02:25:08;49.50;;;32.90;;
43511;SDS011;34054;52.100;5.116;2023-05-10T02:25:44;51.53;;;33.88;;
43511;SDS011;34054;52.100;5.116;2023-05-10T02:26:18;55.13;;;37.47;;
43511;SDS011;34054;52.100;5.116;2023-05-10T02:26:51;49.80;;;34.55;;
43511;SDS011;34054;52.100;5.116;2023-05-10T02:27:26;58.13;;;39.00;;
43511;SDS011;34054;52.100;5.116;2023-05-10T02:27:59;49.55;;;34.25;;
43511;SDS011;34054;52.100;5.116;2023-05-10T02:28:32;60.00;;;37.03;;
43511;SDS011;34054;52.100;5.116;2023-05-10T02:29:08;50.28;;;34.83;;
43511;SDS011;34054;52.100;5.116;2023-05-10T02:29:40;45.30;;;36.78;;
43511;SDS011;34054;52.100;5.116;2023-05-10T02:30:12;61.88;;;41.28;;
43511;SDS011;34054;52.100;5.116;2023-05-10T02:30:45;45.75;;;34.67;;
43511;SDS011;34054;52.100;5.116;2023-05-10T02:31:18;52.30;;;35.67;;
43511;SDS011;34054;52.100;5.116;2023-05-10T02:31:51;59.53;;;39.38;;
43511;SDS011;34054;52.100;5.116;2023-05-10T02:32:24;44.10;;;37.60;;
43511;SDS011;34054;52.100;5.116;2023-05-10T02:32:59;57.33;;;38.72;;
43511;SDS011;34054;52.100;5.116;2023-05-10T02:33:31;53.38;;;39.40;;
43511;SDS011;34054;52.100;5.116;2023-05-10T02:34:05;67.32;;;39.17;;
43511;SDS011;34054;52.100;5.116;2023-05-10T02:34:38;56.28;;;41.20;;
43511;SDS011;34054;52.100;5.116;2023-05-10T02:35:11;50.70;;;35.20;;
43511;SDS011;34054;52.100;5.116;2023-05-10T02:35:43;46.80;;;38.55;;
43511;SDS011;34054;52.100;5.116;2023-05-10T02:36:16;47.40;;;34.42;;
43511;SDS011;34054;52.100;5.116;2023-05-10T02:36:48;48.70;;;41.38;;
43511;SDS011;34054;52.100;5.116;2023-05-10T02:37:21;58.47;;;40.97;;
43511;SDS011;34054;52.100;5.116;2023-05-10T02:37:53;40.72;;;35.88;;
43511;SDS011;34054;52.100;5.116;2023-05-10T02:38:26;51.40;;;37.58;;
43511;SDS011;34054;52.100;5.116;2023-05-10T02:38:58;65.45;;;38.08;;
43511;SDS011;34054;52.100;5.116;2023-05-10T02:39:32;48.95;;;40.70;;
43511;SDS011;34054;52.100;5.116;2023-05-10T02:40:05;52.97;;;37.28;;
43511;SDS011;34054;52.100;5.116;2023-05-10T02:40:38;64.03;;;41.40;;
43511;SDS011;34054;52.100;5.116;2023-05-10T02:41:11;55.10;;;40.80;;
43511;SDS011;34054;52.100;5.116;2023-05-10T02:41:44;54.00;;;42.15;;
43511;SDS011;34054;52.100;5.116;2023-05-10T02:42:18;57.75;;;37.50;;
43511;SDS011;34054;52.100;5.116;2023-05-10T02:42:50;41.15;;;35.33;;
43511;SDS011;34054;52.100;5.116;2023-05-10T02:43:26;55.03;;;38.55;;
43511;SDS011;34054;52.100;5.116;2023-05-10T02:44:01;62.30;;;41.55;;
43511;SDS011;34054;52.100;5.116;2023-05-10T02:44:34;53.47;;;42.67;;
43511;SDS011;34054;52.100;5.116;2023-05-10T02:45:10;59.50;;;39.17;;
43511;SDS011;34054;52.100;5.116;2023-05-10T02:45:43;56.53;;;38.75;;
43511;SDS011;34054;52.100;5.116;2023-05-10T02:46:17;56.22;;;40.70;;
43511;SDS011;34054;52.100;5.116;2023-05-10T02:46:49;56.00;;;42.75;;
43511;SDS011;34054;52.100;5.116;2023-05-10T02:47:21;55.47;;;38.08;;
43511;SDS011;34054;52.100;5.116;2023-05-10T02:47:53;48.72;;;35.33;;
43511;SDS011;34054;52.100;5.116;2023-05-10T02:48:25;58.60;;;40.85;;
43511;SDS011;34054;52.100;5.116;2023-05-10T02:48:57;57.17;;;42.58;;
43511;SDS011;34054;52.100;5.116;2023-05-10T02:49:29;52.97;;;39.38;;
43511;SDS011;34054;52.100;5.116;2023-05-10T02:50:00;50.53;;;38.90;;
43511;SDS011;34054;52.100;5.116;2023-05-10T02:50:32;56.35;;;40.00;;
43511;SDS011;34054;52.100;5.116;2023-05-10T02:51:06;49.58;;;40.47;;
43511;SDS011;34054;52.100;5.116;2023-05-10T02:51:40;54.60;;;41.38;;
43511;SDS011;34054;52.100;5.116;2023-05-10T02:52:15;51.88;;;41.97;;
43511;SDS011;34054;52.100;5.116;2023-05-10T02:52:51;53.70;;;35.42;;
43511;SDS011;34054;52.100;5.116;2023-05-10T02:53:23;53.88;;;38.05;;
43511;SDS011;34054;52.100;5.116;2023-05-10T02:54:04;52.10;;;37.58;;
43511;SDS011;34054;52.100;5.116;2023-05-10T02:54:42;59.20;;;41.15;;
43511;SDS011;34054;52.100;5.116;2023-05-10T02:55:16;60.13;;;41.00;;
43511;SDS011;34054;52.100;5.116;2023-05-10T02:55:50;63.75;;;46.22;;
43511;SDS011;34054;52.100;5.116;2023-05-10T02:56:28;50.95;;;41.83;;
43511;SDS011;34054;52.100;5.116;2023-05-10T02:57:04;54.50;;;42.97;;
43511;SDS011;34054;52.100;5.116;2023-05-10T02:57:38;54.78;;;40.95;;
43511;SDS011;34054;52.100;5.116;2023-05-10T02:58:13;59.85;;;41.72;;
43511;SDS011;34054;52.100;5.116;2023-05-10T02:58:44;70.07;;;44.75;;
43511;SDS011;34054;52.100;5.116;2023-05-10T02:59:16;51.67;;;41.40;;
43511;SDS011;34054;52.100;5.116;2023-05-10T02:59:48;58.60;;;42.58;;
43511;SDS011;34054;52.100;5.116;2023-05-10T03:00:19;64.10;;;44.42;;
43511;SDS011;34054;52.100;5.116;2023-05-10T03:00:51;65.93;;;42.83;;
43511;SDS011;34054;52.100;5.116;2023-05-10T03:01:22;55.92;;;42.20;;
43511;SDS011;34054;52.100;5.116;2023-05-10T03:01:55;67.25;;;42.67;;
43511;SDS011;34054;52.100;5.116;2023-05-10T03:02:26;61.78;;;43.58;;
43511;SDS011;34054;52.100;5.116;2023-05-10T03:02:57;63.55;;;43.28;;
43511;SDS011;34054;52.100;5.116;2023-05-10T03:03:31;54.55;;;42.55;;
43511;SDS011;34054;52.100;5.116;2023-05-10T03:04:02;64.32;;;40.38;;
43511;SDS011;34054;52.100;5.116;2023-05-10T03:04:34;61.30;;;39.80;;
43511;SDS011;34054;52.100;5.116;2023-05-10T03:05:06;58.00;;;39.15;;
43511;SDS011;34054;52.100;5.116;2023-05-10T03:05:38;59.30;;;42.63;;
43511;SDS011;34054;52.100;5.116;2023-05-10T03:06:09;57.30;;;39.60;;
43511;SDS011;34054;52.100;5.116;2023-05-10T03:06:41;46.42;;;39.50;;
43511;SDS011;34054;52.100;5.116;2023-05-10T03:07:13;46.80;;;37.25;;
43511;SDS011;34054;52.100;5.116;2023-05-10T03:07:44;55.83;;;40.17;;
43511;SDS011;34054;52.100;5.116;2023-05-10T03:08:17;52.60;;;41.83;;
43511;SDS011;34054;52.100;5.116;2023-05-10T03:08:49;63.20;;;40.38;;
43511;SDS011;34054;52.100;5.116;2023-05-10T03:09:20;55.70;;;41.25;;
43511;SDS011;34054;52.100;5.116;2023-05-10T03:09:52;54.97;;;42.58;;
43511;SDS011;34054;52.100;5.116;2023-05-10T03:10:25;58.95;;;44.13;;
43511;SDS011;34054;52.100;5.116;2023-05-10T03:11:05;56.72;;;39.55;;
43511;SDS011;34054;52.100;5.116;2023-05-10T03:11:55;45.15;;;35.55;;
43511;SDS011;34054;52.100;5.116;2023-05-10T03:12:35;56.17;;;45.17;;
43511;SDS011;34054;52.100;5.116;2023-05-10T03:13:21;52.45;;;39.63;;
43511;SDS011;34054;52.100;5.116;2023-05-10T03:14:10;61.10;;;42.13;;
43511;SDS011;34054;52.100;5.116;2023-05-10T03:14:49;55.78;;;41.70;;
43511;SDS011;34054;52.100;5.116;2023-05-10T03:15:30;56.92;;;41.97;;
43511;SDS011;34054;52.100;5.116;2023-05-10T03:16:08;60.42;;;43.38;;
43511;SDS011;34054;52.100;5.116;2023-05-10T03:16:46;62.60;;;40.92;;
43511;SDS011;34054;52.100;5.116;2023-05-10T03:17:23;60.97;;;42.50;;
43511;SDS011;34054;52.100;5.116;2023-05-10T03:18:01;55.38;;;43.92;;
43511;SDS011;34054;52.100;5.116;2023-05-10T03:18:40;58.72;;;38.65;;
43511;SDS011;34054;52.100;5.116;2023-05-10T03:19:16;48.00;;;39.45;;
43511;SDS011;34054;52.100;5.116;2023-05-10T03:19:53;62.97;;;44.35;;
43511;SDS011;34054;52.100;5.116;2023-05-10T03:20:26;65.10;;;41.47;;
43511;SDS011;34054;52.100;5.116;2023-05-10T03:21:03;72.93;;;45.15;;
43511;SDS011;34054;52.100;5.116;2023-05-10T03:21:38;57.42;;;39.03;;
43511;SDS011;34054;52.100;5.116;2023-05-10T03:22:13;63.00;;;41.58;;